createdAt,value
2022-11-28T00:01:43.856Z,165.00
2022-11-28T00:06:49.161Z,196.60
2022-11-28T00:11:51.442Z,144.00
2022-11-28T00:16:57.803Z,157.00
2022-11-28T00:21:59.586Z,180.10
2022-11-28T00:37:06.353Z,179.90
2022-11-28T00:42:08.121Z,190.00
2022-11-28T00:47:09.861Z,161.30
2022-11-28T00:52:11.603Z,144.70
2022-11-28T00:57:13.458Z,131.00
2022-11-28T01:02:15.356Z,132.70
2022-11-28T01:07:17.425Z,121.50
2022-11-28T01:12:19.261Z,124.30
2022-11-28T01:22:22.647Z,107.80
2022-11-28T01:27:24.729Z,132.90
2022-11-28T01:32:26.459Z,159.40
2022-11-28T01:42:31.392Z,152.60
2022-11-28T01:47:34.503Z,136.50
2022-11-28T01:52:39.704Z,141.70
2022-11-28T01:57:42.568Z,136.70
2022-11-28T02:03:27.745Z,139.20
2022-11-28T02:08:34.135Z,142.40
2022-11-28T02:14:09.201Z,149.50
2022-11-28T02:19:37.602Z,145.80
2022-11-28T02:24:55.150Z,138.10
2022-11-28T02:30:15.256Z,139.70
2022-11-28T02:35:28.509Z,154.10
2022-11-28T02:40:49.327Z,162.60
2022-11-28T02:46:06.153Z,155.40
2022-11-28T02:51:17.285Z,171.80
2022-11-28T02:56:19.645Z,148.20
2022-11-28T03:01:31.241Z,154.90
2022-11-28T03:07:01.598Z,153.90
2022-11-28T03:12:22.327Z,136.90
2022-11-28T03:17:59.629Z,124.60
2022-11-28T03:23:10.732Z,107.20
2022-11-28T03:28:23.357Z,81.70
2022-11-28T03:33:30.645Z,93.30
2022-11-28T03:38:38.958Z,84.70
2022-11-28T03:43:47.551Z,84.60
2022-11-28T03:48:54.843Z,79.10
2022-11-28T03:54:03.871Z,81.40
2022-11-28T03:59:13.102Z,93.40
2022-11-28T04:04:39.402Z,82.50
2022-11-28T04:09:53.875Z,87.30
2022-11-28T04:15:04.058Z,135.40
2022-11-28T04:20:26.404Z,170.00
2022-11-28T04:25:32.967Z,137.50
2022-11-28T04:30:37.242Z,122.10
2022-11-28T04:35:47.500Z,118.80
2022-11-28T04:40:57.446Z,104.70
2022-11-28T04:46:10.042Z,98.30
2022-11-28T04:51:27.728Z,95.50
2022-11-28T04:56:39.032Z,98.40
2022-11-28T05:01:43.632Z,96.60
2022-11-28T05:06:45.778Z,94.30
2022-11-28T05:11:47.558Z,102.20
2022-11-28T05:16:49.783Z,92.90
2022-11-28T05:21:53.562Z,99.30
2022-11-28T05:26:55.351Z,100.10
2022-11-28T05:31:57.271Z,99.20
2022-11-28T05:36:59.123Z,98.50
2022-11-28T05:52:04.542Z,98.40
2022-11-28T05:57:07.339Z,110.10
2022-11-28T06:02:09.273Z,99.30
2022-11-28T06:07:11.132Z,108.70
2022-11-28T06:12:12.982Z,99.40
2022-11-28T06:17:14.858Z,103.30
2022-11-28T06:22:16.611Z,95.70
2022-11-28T06:27:18.417Z,97.30
2022-11-28T06:32:22.165Z,104.00
2022-11-28T06:37:24.200Z,100.70
2022-11-28T06:42:25.941Z,98.20
2022-11-28T06:52:29.318Z,109.10
2022-11-28T06:57:32.723Z,153.20
2022-11-28T07:02:34.591Z,107.10
2022-11-28T07:07:52.775Z,110.30
2022-11-28T07:13:05.180Z,98.00
2022-11-28T07:23:09.043Z,218.70
2022-11-28T07:28:10.746Z,169.80
2022-11-28T07:38:33.558Z,153.90
2022-11-28T07:43:35.446Z,113.80
2022-11-28T07:48:37.760Z,106.50
2022-11-28T07:53:40.759Z,98.90
2022-11-28T07:58:44.244Z,90.00
2022-11-28T08:03:46.951Z,87.50
2022-11-28T08:08:50.567Z,98.30
2022-11-28T08:13:55.037Z,113.60
2022-11-28T08:19:03.763Z,115.00
2022-11-28T08:24:08.176Z,84.80
2022-11-28T08:29:10.085Z,84.10
2022-11-28T08:34:13.045Z,93.70
2022-11-28T08:39:23.832Z,89.70
2022-11-28T08:44:30.162Z,80.30
2022-11-28T08:49:32.907Z,91.90
2022-11-28T08:54:34.901Z,96.00
2022-11-28T08:59:37.237Z,92.10
2022-11-28T09:04:39.058Z,92.20
2022-11-28T09:09:40.909Z,89.90
2022-11-28T09:14:42.722Z,85.30
2022-11-28T09:19:44.994Z,78.80
2022-11-28T09:24:47.684Z,60.70
2022-11-28T09:29:49.950Z,67.90
2022-11-28T09:34:51.808Z,72.70
2022-11-28T09:40:11.989Z,69.00
2022-11-28T09:45:18.943Z,83.50
2022-11-28T09:50:32.136Z,61.70
2022-11-28T09:55:45.171Z,114.60
2022-11-28T10:01:01.299Z,124.40
2022-11-28T10:06:18.228Z,74.90
2022-11-28T10:11:52.240Z,103.60
2022-11-28T10:16:59.070Z,52.90
2022-11-28T10:22:05.176Z,44.20
2022-11-28T10:27:07.268Z,45.00
2022-11-28T10:32:16.494Z,41.90
2022-11-28T10:37:27.643Z,51.00
2022-11-28T10:42:52.083Z,83.90
2022-11-28T10:48:38.377Z,51.10
2022-11-28T10:53:59.364Z,53.20
2022-11-28T10:59:20.754Z,76.40
2022-11-28T11:04:26.858Z,87.90
2022-11-28T11:09:28.730Z,56.80
2022-11-28T11:14:42.061Z,39.20
2022-11-28T11:19:44.053Z,44.20
2022-11-28T11:25:14.420Z,43.80
2022-11-28T11:30:46.855Z,94.00
2022-11-28T11:35:49.591Z,39.80
2022-11-28T11:40:52.134Z,50.60
2022-11-28T11:46:14.613Z,48.40
2022-11-28T11:51:28.847Z,43.80
2022-11-28T11:56:36.680Z,97.70
2022-11-28T12:01:40.299Z,49.40
2022-11-28T12:06:50.790Z,40.30
2022-11-28T12:11:59.596Z,36.70
2022-11-28T12:17:48.372Z,63.40
2022-11-28T12:23:01.785Z,34.60
2022-11-28T12:28:32.921Z,31.50
2022-11-28T12:33:43.709Z,73.00
2022-11-28T12:38:54.703Z,39.80
2022-11-28T12:44:30.539Z,35.80
2022-11-28T12:49:52.316Z,35.70
2022-11-28T12:55:04.953Z,28.40
2022-11-28T13:00:14.904Z,42.60
2022-11-28T13:05:22.975Z,34.00
2022-11-28T13:10:50.626Z,65.30
2022-11-28T13:16:27.038Z,61.40
2022-11-28T13:21:44.716Z,56.20
2022-11-28T13:26:59.088Z,64.90
2022-11-28T13:32:11.368Z,62.60
2022-11-28T13:43:08.208Z,79.30
2022-11-28T13:54:22.357Z,94.10
2022-11-28T13:59:25.350Z,89.90
2022-11-28T14:04:29.744Z,87.40
2022-11-28T14:09:44.655Z,107.00
2022-11-28T14:15:10.005Z,97.20
2022-11-28T14:20:14.896Z,98.10
2022-11-28T14:25:19.885Z,117.50
2022-11-28T14:30:43.535Z,130.80
2022-11-28T14:35:54.553Z,125.10
2022-11-28T14:40:56.943Z,139.30
2022-11-28T14:46:24.478Z,131.70
2022-11-28T14:51:47.378Z,159.80
2022-11-28T14:56:56.651Z,155.20
2022-11-28T15:02:11.198Z,153.80
2022-11-28T15:08:05.410Z,170.10
2022-11-28T15:13:19.476Z,184.80
2022-11-28T15:18:25.131Z,204.20
2022-11-28T15:23:33.223Z,169.10
2022-11-28T15:28:36.276Z,176.20
2022-11-28T15:33:39.700Z,170.40
2022-11-28T15:38:43.529Z,160.60
2022-11-28T15:43:46.425Z,135.90
2022-11-28T15:48:50.515Z,145.40
2022-11-28T15:53:52.388Z,69.70
2022-11-28T15:58:54.918Z,58.80
2022-11-28T16:04:05.439Z,47.80
2022-11-28T16:09:23.945Z,45.20
2022-11-28T16:14:30.270Z,55.00
2022-11-28T16:19:35.166Z,45.90
2022-11-28T16:24:58.030Z,53.60
2022-11-28T16:30:01.768Z,70.00
2022-11-28T16:35:04.900Z,79.60
2022-11-28T16:40:21.870Z,94.90
2022-11-28T16:45:33.198Z,117.30
2022-11-28T16:50:36.431Z,78.60
2022-11-28T16:55:39.531Z,94.60
2022-11-28T17:00:50.381Z,117.50
2022-11-28T17:05:52.253Z,121.80
2022-11-28T17:10:54.050Z,122.60
2022-11-28T17:15:55.784Z,118.10
2022-11-28T17:20:57.633Z,120.60
2022-11-28T17:25:59.440Z,116.70
2022-11-28T17:31:01.226Z,98.10
2022-11-28T17:36:03.851Z,95.60
2022-11-28T17:41:06.215Z,100.60
2022-11-28T17:46:08.787Z,104.50
2022-11-28T17:51:10.795Z,91.70
2022-11-28T17:56:13.104Z,96.20
2022-11-28T18:01:19.113Z,98.10
2022-11-28T18:06:22.729Z,103.00
2022-11-28T18:11:24.874Z,91.60
2022-11-28T18:16:26.743Z,85.80
2022-11-28T18:21:28.563Z,82.40
2022-11-28T18:26:30.358Z,61.50
2022-11-28T18:31:34.401Z,79.30
2022-11-28T18:36:38.105Z,81.10
2022-11-28T18:41:40.796Z,108.30
2022-11-28T18:46:42.599Z,156.50
2022-11-28T18:51:44.820Z,169.00
2022-11-28T18:56:47.312Z,173.60
2022-11-28T19:01:49.255Z,141.00
2022-11-28T19:06:51.991Z,127.10
2022-11-28T19:11:56.126Z,162.40
2022-11-28T19:16:58.438Z,130.50
2022-11-28T19:22:00.500Z,126.90
2022-11-28T19:27:04.147Z,110.20
2022-11-28T19:32:06.261Z,108.40
2022-11-28T19:37:08.052Z,125.60
2022-11-28T19:42:09.909Z,91.60
2022-11-28T19:47:11.961Z,106.40
2022-11-28T19:52:14.024Z,111.20
2022-11-28T19:57:15.905Z,138.00
2022-11-28T20:02:20.367Z,357.70
2022-11-28T20:07:22.591Z,230.60
2022-11-28T20:12:24.620Z,174.70
2022-11-28T20:17:26.619Z,172.50
2022-11-28T20:27:30.094Z,159.90
2022-11-28T20:32:32.303Z,158.40
2022-11-28T20:37:34.221Z,187.70
2022-11-28T20:42:39.823Z,186.00
2022-11-28T20:47:45.481Z,183.70
2022-11-28T20:52:51.335Z,203.00
2022-11-28T20:57:53.206Z,187.90
2022-11-28T21:02:55.052Z,167.00
2022-11-28T21:07:56.999Z,166.70
2022-11-28T21:12:58.917Z,177.60
2022-11-28T21:18:01.139Z,182.50
2022-11-28T21:23:03.056Z,183.70
2022-11-28T21:28:05.393Z,177.60
2022-11-28T21:33:07.126Z,176.30
2022-11-28T21:38:09.052Z,174.50
2022-11-28T21:43:10.756Z,200.30
2022-11-28T21:48:12.994Z,187.60
2022-11-28T21:53:16.875Z,214.10
2022-11-28T21:58:22.423Z,237.70
2022-11-28T22:03:28.330Z,199.60
2022-11-28T22:08:30.269Z,159.80
2022-11-28T22:13:39.591Z,156.60
2022-11-28T22:18:41.511Z,132.60
2022-11-28T22:23:43.830Z,146.80
2022-11-28T22:28:49.116Z,152.90
2022-11-28T22:33:54.972Z,190.10
2022-11-28T22:38:58.092Z,182.20
2022-11-28T22:44:01.805Z,154.20
2022-11-28T22:49:04.955Z,174.00
2022-11-28T22:54:07.478Z,138.80
2022-11-28T22:59:13.956Z,137.00
2022-11-28T23:04:16.297Z,153.10
2022-11-28T23:09:18.721Z,176.80
2022-11-28T23:14:20.688Z,194.80
2022-11-28T23:19:23.111Z,161.70
2022-11-28T23:24:25.079Z,133.10
2022-11-28T23:29:27.459Z,138.20
2022-11-28T23:34:30.008Z,138.50
2022-11-28T23:39:33.869Z,150.00
2022-11-28T23:44:39.189Z,139.50
2022-11-28T23:49:40.896Z,140.60
2022-11-28T23:54:43.000Z,133.00
2022-11-28T23:59:44.963Z,139.50
